sensor_id;sensor_type;location;lat;lon;timestamp;temperature;humidity
4406;DHT22;2216;53.806;11.598;2023-12-29T00:00:09;10.40;89.70
4406;DHT22;2216;53.806;11.598;2023-12-29T00:02:37;10.40;89.70
4406;DHT22;2216;53.806;11.598;2023-12-29T00:05:03;10.40;89.30
4406;DHT22;2216;53.806;11.598;2023-12-29T00:07:29;10.40;89.40
4406;DHT22;2216;53.806;11.598;2023-12-29T00:09:54;10.40;89.40
4406;DHT22;2216;53.806;11.598;2023-12-29T00:12:20;10.40;89.30
4406;DHT22;2216;53.806;11.598;2023-12-29T00:14:46;10.40;89.60
4406;DHT22;2216;53.806;11.598;2023-12-29T00:17:12;10.40;89.30
4406;DHT22;2216;53.806;11.598;2023-12-29T00:19:37;10.40;89.30
4406;DHT22;2216;53.806;11.598;2023-12-29T00:22:04;10.40;89.40
4406;DHT22;2216;53.806;11.598;2023-12-29T00:24:30;10.40;89.30
4406;DHT22;2216;53.806;11.598;2023-12-29T00:26:59;10.40;89.40
4406;DHT22;2216;53.806;11.598;2023-12-29T00:29:25;10.40;89.50
4406;DHT22;2216;53.806;11.598;2023-12-29T00:31:53;10.30;89.40
4406;DHT22;2216;53.806;11.598;2023-12-29T00:34:19;10.40;89.40
4406;DHT22;2216;53.806;11.598;2023-12-29T00:36:45;10.40;89.50
4406;DHT22;2216;53.806;11.598;2023-12-29T00:39:11;10.40;89.50
4406;DHT22;2216;53.806;11.598;2023-12-29T00:41:40;10.40;89.60
4406;DHT22;2216;53.806;11.598;2023-12-29T00:44:07;10.40;89.50
4406;DHT22;2216;53.806;11.598;2023-12-29T00:46:33;10.40;89.60
4406;DHT22;2216;53.806;11.598;2023-12-29T00:49:00;10.40;89.50
4406;DHT22;2216;53.806;11.598;2023-12-29T00:51:27;10.40;89.40
4406;DHT22;2216;53.806;11.598;2023-12-29T00:53:52;10.40;89.20
4406;DHT22;2216;53.806;11.598;2023-12-29T00:56:18;10.40;89.30
4406;DHT22;2216;53.806;11.598;2023-12-29T00:58:44;10.30;89.40
4406;DHT22;2216;53.806;11.598;2023-12-29T01:01:10;10.30;89.50
4406;DHT22;2216;53.806;11.598;2023-12-29T01:03:37;10.30;89.40
4406;DHT22;2216;53.806;11.598;2023-12-29T01:06:03;10.30;89.40
4406;DHT22;2216;53.806;11.598;2023-12-29T01:08:29;10.20;89.40
4406;DHT22;2216;53.806;11.598;2023-12-29T01:10:56;10.20;89.40
4406;DHT22;2216;53.806;11.598;2023-12-29T01:13:21;10.20;89.40
4406;DHT22;2216;53.806;11.598;2023-12-29T01:15:47;10.20;89.50
4406;DHT22;2216;53.806;11.598;2023-12-29T01:18:13;10.10;89.40
4406;DHT22;2216;53.806;11.598;2023-12-29T01:20:39;10.00;89.40
4406;DHT22;2216;53.806;11.598;2023-12-29T01:23:06;10.00;89.40
4406;DHT22;2216;53.806;11.598;2023-12-29T01:25:32;9.90;89.40
4406;DHT22;2216;53.806;11.598;2023-12-29T01:27:57;9.90;89.40
4406;DHT22;2216;53.806;11.598;2023-12-29T01:30:23;9.90;89.50
4406;DHT22;2216;53.806;11.598;2023-12-29T01:32:49;9.90;89.60
4406;DHT22;2216;53.806;11.598;2023-12-29T01:35:15;9.80;89.50
4406;DHT22;2216;53.806;11.598;2023-12-29T01:37:41;9.80;89.60
4406;DHT22;2216;53.806;11.598;2023-12-29T01:40:08;9.80;89.70
4406;DHT22;2216;53.806;11.598;2023-12-29T01:42:35;9.70;89.70
4406;DHT22;2216;53.806;11.598;2023-12-29T01:45:00;9.70;89.70
4406;DHT22;2216;53.806;11.598;2023-12-29T01:47:27;9.70;89.80
4406;DHT22;2216;53.806;11.598;2023-12-29T01:49:53;9.60;89.90
4406;DHT22;2216;53.806;11.598;2023-12-29T01:52:19;9.60;89.90
4406;DHT22;2216;53.806;11.598;2023-12-29T01:54:49;9.60;89.90
4406;DHT22;2216;53.806;11.598;2023-12-29T01:57:15;9.60;90.00
4406;DHT22;2216;53.806;11.598;2023-12-29T01:59:41;9.60;90.00
4406;DHT22;2216;53.806;11.598;2023-12-29T02:02:07;9.50;90.00
4406;DHT22;2216;53.806;11.598;2023-12-29T02:04:33;9.50;90.00
4406;DHT22;2216;53.806;11.598;2023-12-29T02:06:59;9.60;90.10
4406;DHT22;2216;53.806;11.598;2023-12-29T02:09:25;9.50;90.10
4406;DHT22;2216;53.806;11.598;2023-12-29T02:11:50;9.60;90.10
4406;DHT22;2216;53.806;11.598;2023-12-29T02:14:17;9.60;90.10
4406;DHT22;2216;53.806;11.598;2023-12-29T02:17:06;9.50;90.10
4406;DHT22;2216;53.806;11.598;2023-12-29T02:19:47;9.50;90.10
4406;DHT22;2216;53.806;11.598;2023-12-29T02:22:15;9.60;90.20
4406;DHT22;2216;53.806;11.598;2023-12-29T02:24:48;9.60;90.20
4406;DHT22;2216;53.806;11.598;2023-12-29T02:30:43;9.60;90.20
4406;DHT22;2216;53.806;11.598;2023-12-29T02:33:14;9.60;90.20
4406;DHT22;2216;53.806;11.598;2023-12-29T02:35:43;9.60;90.20
4406;DHT22;2216;53.806;11.598;2023-12-29T02:38:10;9.60;90.20
4406;DHT22;2216;53.806;11.598;2023-12-29T02:40:36;9.60;90.30
4406;DHT22;2216;53.806;11.598;2023-12-29T02:43:02;9.60;90.30
4406;DHT22;2216;53.806;11.598;2023-12-29T02:45:28;9.60;90.20
4406;DHT22;2216;53.806;11.598;2023-12-29T02:47:54;9.60;90.20
4406;DHT22;2216;53.806;11.598;2023-12-29T02:50:20;9.60;90.20
4406;DHT22;2216;53.806;11.598;2023-12-29T02:52:46;9.60;90.20
4406;DHT22;2216;53.806;11.598;2023-12-29T02:55:11;9.60;90.20
4406;DHT22;2216;53.806;11.598;2023-12-29T02:57:38;9.60;90.20
4406;DHT22;2216;53.806;11.598;2023-12-29T03:00:05;9.60;90.20
4406;DHT22;2216;53.806;11.598;2023-12-29T03:02:31;9.80;90.30
4406;DHT22;2216;53.806;11.598;2023-12-29T03:04:58;9.60;90.20
4406;DHT22;2216;53.806;11.598;2023-12-29T03:07:24;9.60;90.20
4406;DHT22;2216;53.806;11.598;2023-12-29T03:09:50;9.70;90.30
4406;DHT22;2216;53.806;11.598;2023-12-29T03:12:15;9.60;90.20
4406;DHT22;2216;53.806;11.598;2023-12-29T03:14:41;9.70;90.30
4406;DHT22;2216;53.806;11.598;2023-12-29T03:17:07;9.70;90.30
4406;DHT22;2216;53.806;11.598;2023-12-29T03:19:33;9.70;90.30
4406;DHT22;2216;53.806;11.598;2023-12-29T03:21:59;9.70;90.30
4406;DHT22;2216;53.806;11.598;2023-12-29T03:24:25;9.60;90.20
4406;DHT22;2216;53.806;11.598;2023-12-29T03:26:51;9.70;90.30
4406;DHT22;2216;53.806;11.598;2023-12-29T03:29:16;9.70;90.30
4406;DHT22;2216;53.806;11.598;2023-12-29T03:31:42;9.70;90.30
4406;DHT22;2216;53.806;11.598;2023-12-29T03:34:08;9.70;90.30
4406;DHT22;2216;53.806;11.598;2023-12-29T03:36:33;9.80;90.30
4406;DHT22;2216;53.806;11.598;2023-12-29T03:38:59;9.70;90.30
4406;DHT22;2216;53.806;11.598;2023-12-29T03:41:25;9.70;90.30
4406;DHT22;2216;53.806;11.598;2023-12-29T03:43:51;9.70;90.30
4406;DHT22;2216;53.806;11.598;2023-12-29T03:46:20;9.80;90.30
4406;DHT22;2216;53.806;11.598;2023-12-29T03:48:47;9.70;90.30
4406;DHT22;2216;53.806;11.598;2023-12-29T03:51:13;9.80;90.30
4406;DHT22;2216;53.806;11.598;2023-12-29T03:53:40;9.80;90.30
4406;DHT22;2216;53.806;11.598;2023-12-29T03:56:13;9.80;90.30
4406;DHT22;2216;53.806;11.598;2023-12-29T03:58:41;9.80;90.20
4406;DHT22;2216;53.806;11.598;2023-12-29T04:01:11;9.80;90.20
4406;DHT22;2216;53.806;11.598;2023-12-29T04:03:39;9.80;90.30
4406;DHT22;2216;53.806;11.598;2023-12-29T04:06:06;9.80;90.20
4406;DHT22;2216;53.806;11.598;2023-12-29T04:08:33;9.80;90.60
4406;DHT22;2216;53.806;11.598;2023-12-29T04:11:02;9.80;90.30
4406;DHT22;2216;53.806;11.598;2023-12-29T04:13:29;9.80;90.30
4406;DHT22;2216;53.806;11.598;2023-12-29T04:15:55;9.80;90.30
4406;DHT22;2216;53.806;11.598;2023-12-29T04:18:22;9.80;90.30
4406;DHT22;2216;53.806;11.598;2023-12-29T04:20:48;9.90;90.30
4406;DHT22;2216;53.806;11.598;2023-12-29T04:23:14;9.90;90.30
4406;DHT22;2216;53.806;11.598;2023-12-29T04:25:40;9.90;90.30
4406;DHT22;2216;53.806;11.598;2023-12-29T04:28:07;9.80;90.20
4406;DHT22;2216;53.806;11.598;2023-12-29T04:30:33;9.90;90.20
4406;DHT22;2216;53.806;11.598;2023-12-29T04:32:59;9.90;90.30
4406;DHT22;2216;53.806;11.598;2023-12-29T04:35:25;9.90;90.20
4406;DHT22;2216;53.806;11.598;2023-12-29T04:37:51;9.90;90.20
4406;DHT22;2216;53.806;11.598;2023-12-29T04:40:17;9.90;90.20
4406;DHT22;2216;53.806;11.598;2023-12-29T04:42:44;9.90;90.20
4406;DHT22;2216;53.806;11.598;2023-12-29T04:45:09;9.90;90.20
4406;DHT22;2216;53.806;11.598;2023-12-29T04:47:36;9.90;90.20
4406;DHT22;2216;53.806;11.598;2023-12-29T04:50:02;9.90;90.20
4406;DHT22;2216;53.806;11.598;2023-12-29T04:52:28;9.90;90.20
4406;DHT22;2216;53.806;11.598;2023-12-29T04:54:53;9.90;90.20
4406;DHT22;2216;53.806;11.598;2023-12-29T04:57:19;9.80;90.10
4406;DHT22;2216;53.806;11.598;2023-12-29T04:59:45;9.90;90.10
4406;DHT22;2216;53.806;11.598;2023-12-29T05:02:11;9.90;90.10
4406;DHT22;2216;53.806;11.598;2023-12-29T05:04:37;9.80;90.10
4406;DHT22;2216;53.806;11.598;2023-12-29T05:07:07;9.80;90.10
4406;DHT22;2216;53.806;11.598;2023-12-29T05:09:34;9.80;90.10
4406;DHT22;2216;53.806;11.598;2023-12-29T05:12:00;9.80;90.10
4406;DHT22;2216;53.806;11.598;2023-12-29T05:14:25;9.70;90.10
4406;DHT22;2216;53.806;11.598;2023-12-29T05:16:51;9.70;90.10
4406;DHT22;2216;53.806;11.598;2023-12-29T05:19:17;9.70;90.10
4406;DHT22;2216;53.806;11.598;2023-12-29T05:21:42;9.60;90.00
4406;DHT22;2216;53.806;11.598;2023-12-29T05:24:08;9.60;90.00
4406;DHT22;2216;53.806;11.598;2023-12-29T05:26:34;9.60;90.00
4406;DHT22;2216;53.806;11.598;2023-12-29T05:29:00;9.50;89.90
4406;DHT22;2216;53.806;11.598;2023-12-29T05:31:26;9.50;89.90
4406;DHT22;2216;53.806;11.598;2023-12-29T05:33:51;9.40;89.80
4406;DHT22;2216;53.806;11.598;2023-12-29T05:36:17;9.30;89.80
4406;DHT22;2216;53.806;11.598;2023-12-29T05:38:45;9.30;89.80
4406;DHT22;2216;53.806;11.598;2023-12-29T05:41:15;9.30;89.80
4406;DHT22;2216;53.806;11.598;2023-12-29T05:43:41;9.20;89.70
4406;DHT22;2216;53.806;11.598;2023-12-29T05:46:10;9.20;89.80
4406;DHT22;2216;53.806;11.598;2023-12-29T05:48:40;9.10;89.70
4406;DHT22;2216;53.806;11.598;2023-12-29T05:51:09;9.10;89.70
4406;DHT22;2216;53.806;11.598;2023-12-29T05:53:36;9.10;89.70
4406;DHT22;2216;53.806;11.598;2023-12-29T05:56:03;9.00;89.70
4406;DHT22;2216;53.806;11.598;2023-12-29T05:58:28;8.90;89.70
4406;DHT22;2216;53.806;11.598;2023-12-29T06:00:55;8.90;89.70
4406;DHT22;2216;53.806;11.598;2023-12-29T06:03:21;8.80;89.70
4406;DHT22;2216;53.806;11.598;2023-12-29T06:05:47;8.80;89.70
4406;DHT22;2216;53.806;11.598;2023-12-29T06:08:13;8.70;89.60
4406;DHT22;2216;53.806;11.598;2023-12-29T06:10:39;8.70;89.70
4406;DHT22;2216;53.806;11.598;2023-12-29T06:13:05;8.60;89.60
4406;DHT22;2216;53.806;11.598;2023-12-29T06:15:31;8.60;89.70
4406;DHT22;2216;53.806;11.598;2023-12-29T06:17:57;8.50;89.70
4406;DHT22;2216;53.806;11.598;2023-12-29T06:20:23;8.50;89.80
4406;DHT22;2216;53.806;11.598;2023-12-29T06:22:49;8.50;89.80
4406;DHT22;2216;53.806;11.598;2023-12-29T06:25:15;8.50;89.90
4406;DHT22;2216;53.806;11.598;2023-12-29T06:27:41;8.40;89.90
4406;DHT22;2216;53.806;11.598;2023-12-29T06:30:07;8.40;89.90
4406;DHT22;2216;53.806;11.598;2023-12-29T06:32:34;8.30;89.90
4406;DHT22;2216;53.806;11.598;2023-12-29T06:35:00;8.30;90.00
4406;DHT22;2216;53.806;11.598;2023-12-29T06:37:26;8.30;90.00
4406;DHT22;2216;53.806;11.598;2023-12-29T06:39:51;8.30;90.00
4406;DHT22;2216;53.806;11.598;2023-12-29T06:42:17;8.30;90.00
4406;DHT22;2216;53.806;11.598;2023-12-29T06:44:43;8.20;90.00
4406;DHT22;2216;53.806;11.598;2023-12-29T06:47:08;8.20;90.00
4406;DHT22;2216;53.806;11.598;2023-12-29T06:49:34;8.20;90.00
4406;DHT22;2216;53.806;11.598;2023-12-29T06:52:00;8.20;90.00
4406;DHT22;2216;53.806;11.598;2023-12-29T06:54:27;8.10;90.00
4406;DHT22;2216;53.806;11.598;2023-12-29T06:56:53;8.10;90.00
4406;DHT22;2216;53.806;11.598;2023-12-29T06:59:18;8.10;90.00
4406;DHT22;2216;53.806;11.598;2023-12-29T07:01:45;8.10;90.10
4406;DHT22;2216;53.806;11.598;2023-12-29T07:04:11;8.00;90.00
4406;DHT22;2216;53.806;11.598;2023-12-29T07:06:38;8.00;90.10
4406;DHT22;2216;53.806;11.598;2023-12-29T07:09:03;8.00;90.10
4406;DHT22;2216;53.806;11.598;2023-12-29T07:11:29;8.00;90.10
4406;DHT22;2216;53.806;11.598;2023-12-29T07:13:55;8.00;90.20
4406;DHT22;2216;53.806;11.598;2023-12-29T07:16:21;8.00;90.20
4406;DHT22;2216;53.806;11.598;2023-12-29T07:18:48;8.00;90.20
4406;DHT22;2216;53.806;11.598;2023-12-29T07:21:15;8.00;90.30
4406;DHT22;2216;53.806;11.598;2023-12-29T07:23:42;8.00;90.30
4406;DHT22;2216;53.806;11.598;2023-12-29T07:26:08;8.00;90.30
4406;DHT22;2216;53.806;11.598;2023-12-29T07:28:34;8.10;90.30
4406;DHT22;2216;53.806;11.598;2023-12-29T07:31:00;8.00;90.30
4406;DHT22;2216;53.806;11.598;2023-12-29T07:33:27;8.00;90.30
4406;DHT22;2216;53.806;11.598;2023-12-29T07:35:53;8.10;90.30
4406;DHT22;2216;53.806;11.598;2023-12-29T07:38:19;8.10;90.60
4406;DHT22;2216;53.806;11.598;2023-12-29T07:40:45;8.00;90.30
4406;DHT22;2216;53.806;11.598;2023-12-29T07:43:10;8.00;90.30
4406;DHT22;2216;53.806;11.598;2023-12-29T07:45:36;8.00;90.30
4406;DHT22;2216;53.806;11.598;2023-12-29T07:48:03;8.00;90.30
4406;DHT22;2216;53.806;11.598;2023-12-29T07:50:29;8.00;90.30
4406;DHT22;2216;53.806;11.598;2023-12-29T07:52:55;8.00;90.30
4406;DHT22;2216;53.806;11.598;2023-12-29T07:55:21;8.00;90.30
4406;DHT22;2216;53.806;11.598;2023-12-29T07:57:47;8.00;90.30
4406;DHT22;2216;53.806;11.598;2023-12-29T08:00:16;8.00;90.30
4406;DHT22;2216;53.806;11.598;2023-12-29T08:02:43;8.00;90.30
4406;DHT22;2216;53.806;11.598;2023-12-29T08:05:08;8.00;90.30
4406;DHT22;2216;53.806;11.598;2023-12-29T08:07:35;8.00;90.40
4406;DHT22;2216;53.806;11.598;2023-12-29T08:10:04;8.00;90.40
4406;DHT22;2216;53.806;11.598;2023-12-29T08:12:30;8.10;90.40
4406;DHT22;2216;53.806;11.598;2023-12-29T08:14:59;8.10;90.40
4406;DHT22;2216;53.806;11.598;2023-12-29T08:17:25;8.10;90.50
4406;DHT22;2216;53.806;11.598;2023-12-29T08:19:51;8.10;90.50
4406;DHT22;2216;53.806;11.598;2023-12-29T08:22:16;8.10;90.60
4406;DHT22;2216;53.806;11.598;2023-12-29T08:24:42;8.20;90.60
4406;DHT22;2216;53.806;11.598;2023-12-29T08:27:14;8.20;90.60
4406;DHT22;2216;53.806;11.598;2023-12-29T08:29:40;8.20;90.60
4406;DHT22;2216;53.806;11.598;2023-12-29T08:32:07;8.20;90.50
4406;DHT22;2216;53.806;11.598;2023-12-29T08:34:33;8.20;90.50
4406;DHT22;2216;53.806;11.598;2023-12-29T08:37:03;8.30;90.50
4406;DHT22;2216;53.806;11.598;2023-12-29T08:39:29;8.30;90.50
4406;DHT22;2216;53.806;11.598;2023-12-29T08:41:54;8.30;90.50
4406;DHT22;2216;53.806;11.598;2023-12-29T08:44:21;8.30;90.50
4406;DHT22;2216;53.806;11.598;2023-12-29T08:46:46;8.30;90.50
4406;DHT22;2216;53.806;11.598;2023-12-29T08:49:12;8.30;90.50
4406;DHT22;2216;53.806;11.598;2023-12-29T08:51:38;8.30;90.50
4406;DHT22;2216;53.806;11.598;2023-12-29T08:54:04;8.30;90.40
4406;DHT22;2216;53.806;11.598;2023-12-29T08:56:30;8.30;90.50
4406;DHT22;2216;53.806;11.598;2023-12-29T08:58:56;8.40;90.50
4406;DHT22;2216;53.806;11.598;2023-12-29T09:01:22;8.40;90.50
4406;DHT22;2216;53.806;11.598;2023-12-29T09:03:47;8.30;90.50
4406;DHT22;2216;53.806;11.598;2023-12-29T09:06:13;8.40;90.50
4406;DHT22;2216;53.806;11.598;2023-12-29T09:08:39;8.40;90.50
4406;DHT22;2216;53.806;11.598;2023-12-29T09:11:05;8.40;90.50
4406;DHT22;2216;53.806;11.598;2023-12-29T09:13:31;8.40;90.50
4406;DHT22;2216;53.806;11.598;2023-12-29T09:15:58;8.40;90.50
4406;DHT22;2216;53.806;11.598;2023-12-29T09:18:24;8.40;90.50
4406;DHT22;2216;53.806;11.598;2023-12-29T09:20:50;8.40;90.50
4406;DHT22;2216;53.806;11.598;2023-12-29T09:23:16;8.50;90.60
4406;DHT22;2216;53.806;11.598;2023-12-29T09:25:42;8.50;90.60
4406;DHT22;2216;53.806;11.598;2023-12-29T09:28:07;8.50;90.70
4406;DHT22;2216;53.806;11.598;2023-12-29T09:30:33;8.60;90.70
4406;DHT22;2216;53.806;11.598;2023-12-29T09:32:59;8.60;90.70
4406;DHT22;2216;53.806;11.598;2023-12-29T09:35:25;8.60;90.70
4406;DHT22;2216;53.806;11.598;2023-12-29T09:37:51;8.70;90.80
4406;DHT22;2216;53.806;11.598;2023-12-29T09:40:16;8.70;90.80
4406;DHT22;2216;53.806;11.598;2023-12-29T09:42:43;8.80;90.80
4406;DHT22;2216;53.806;11.598;2023-12-29T09:45:13;8.80;91.00
4406;DHT22;2216;53.806;11.598;2023-12-29T09:47:43;8.90;90.90
4406;DHT22;2216;53.806;11.598;2023-12-29T09:50:13;8.90;90.90
4406;DHT22;2216;53.806;11.598;2023-12-29T09:52:39;9.00;90.90
4406;DHT22;2216;53.806;11.598;2023-12-29T09:55:09;9.00;90.90
4406;DHT22;2216;53.806;11.598;2023-12-29T09:57:37;9.10;90.90
4406;DHT22;2216;53.806;11.598;2023-12-29T10:00:04;9.10;91.00
4406;DHT22;2216;53.806;11.598;2023-12-29T10:02:36;9.20;91.00
4406;DHT22;2216;53.806;11.598;2023-12-29T10:05:03;9.30;91.00
4406;DHT22;2216;53.806;11.598;2023-12-29T10:07:32;9.40;91.40
4406;DHT22;2216;53.806;11.598;2023-12-29T10:10:02;9.40;91.10
4406;DHT22;2216;53.806;11.598;2023-12-29T10:12:31;9.50;91.10
4406;DHT22;2216;53.806;11.598;2023-12-29T10:18:01;9.60;91.00
4406;DHT22;2216;53.806;11.598;2023-12-29T10:26:17;9.70;90.70
4406;DHT22;2216;53.806;11.598;2023-12-29T10:28:43;9.60;90.60
4406;DHT22;2216;53.806;11.598;2023-12-29T10:31:14;9.60;90.50
4406;DHT22;2216;53.806;11.598;2023-12-29T10:33:40;9.60;90.40
4406;DHT22;2216;53.806;11.598;2023-12-29T10:36:06;9.50;90.30
4406;DHT22;2216;53.806;11.598;2023-12-29T10:38:33;9.40;90.20
4406;DHT22;2216;53.806;11.598;2023-12-29T10:41:12;9.30;90.10
4406;DHT22;2216;53.806;11.598;2023-12-29T10:43:40;9.30;90.10
4406;DHT22;2216;53.806;11.598;2023-12-29T10:46:08;9.20;90.10
4406;DHT22;2216;53.806;11.598;2023-12-29T10:48:34;9.00;90.00
4406;DHT22;2216;53.806;11.598;2023-12-29T10:51:05;9.00;90.00
4406;DHT22;2216;53.806;11.598;2023-12-29T10:53:32;9.00;90.10
4406;DHT22;2216;53.806;11.598;2023-12-29T10:55:58;8.90;90.00
4406;DHT22;2216;53.806;11.598;2023-12-29T10:58:28;8.80;90.00
4406;DHT22;2216;53.806;11.598;2023-12-29T11:00:58;8.80;90.10
4406;DHT22;2216;53.806;11.598;2023-12-29T11:03:25;8.70;90.10
4406;DHT22;2216;53.806;11.598;2023-12-29T11:06:01;8.70;90.20
4406;DHT22;2216;53.806;11.598;2023-12-29T11:08:27;8.70;90.20
4406;DHT22;2216;53.806;11.598;2023-12-29T11:10:54;8.70;90.30
4406;DHT22;2216;53.806;11.598;2023-12-29T11:13:20;8.70;90.30
4406;DHT22;2216;53.806;11.598;2023-12-29T11:15:47;8.70;90.40
4406;DHT22;2216;53.806;11.598;2023-12-29T11:18:15;8.70;90.40
4406;DHT22;2216;53.806;11.598;2023-12-29T11:20:43;8.60;90.40
4406;DHT22;2216;53.806;11.598;2023-12-29T11:23:10;8.60;90.40
4406;DHT22;2216;53.806;11.598;2023-12-29T11:25:40;8.60;90.40
4406;DHT22;2216;53.806;11.598;2023-12-29T11:28:09;8.60;90.40
4406;DHT22;2216;53.806;11.598;2023-12-29T11:30:39;8.60;90.50
4406;DHT22;2216;53.806;11.598;2023-12-29T11:33:20;8.60;90.50
4406;DHT22;2216;53.806;11.598;2023-12-29T11:35:59;8.60;90.60
4406;DHT22;2216;53.806;11.598;2023-12-29T11:38:47;8.70;90.60
4406;DHT22;2216;53.806;11.598;2023-12-29T11:43:59;8.80;90.70
4406;DHT22;2216;53.806;11.598;2023-12-29T11:46:39;8.70;90.70
4406;DHT22;2216;53.806;11.598;2023-12-29T11:49:08;8.80;90.70
4406;DHT22;2216;53.806;11.598;2023-12-29T11:51:39;8.80;90.70
4406;DHT22;2216;53.806;11.598;2023-12-29T11:54:06;8.80;90.70
4406;DHT22;2216;53.806;11.598;2023-12-29T11:56:36;8.80;90.70
4406;DHT22;2216;53.806;11.598;2023-12-29T11:59:23;8.90;90.80
4406;DHT22;2216;53.806;11.598;2023-12-29T12:01:51;8.90;90.80
4406;DHT22;2216;53.806;11.598;2023-12-29T12:04:41;8.90;90.80
4406;DHT22;2216;53.806;11.598;2023-12-29T12:07:16;9.00;90.80
4406;DHT22;2216;53.806;11.598;2023-12-29T12:12:53;9.10;91.00
4406;DHT22;2216;53.806;11.598;2023-12-29T12:17:54;9.20;90.90
4406;DHT22;2216;53.806;11.598;2023-12-29T12:20:20;9.20;90.90
4406;DHT22;2216;53.806;11.598;2023-12-29T12:22:59;9.20;90.90
4406;DHT22;2216;53.806;11.598;2023-12-29T12:25:31;9.30;90.90
4406;DHT22;2216;53.806;11.598;2023-12-29T12:28:05;9.20;90.80
4406;DHT22;2216;53.806;11.598;2023-12-29T12:30:33;9.30;90.70
4406;DHT22;2216;53.806;11.598;2023-12-29T12:33:03;9.30;90.70
4406;DHT22;2216;53.806;11.598;2023-12-29T12:35:29;9.30;90.60
4406;DHT22;2216;53.806;11.598;2023-12-29T12:38:12;9.30;90.60
4406;DHT22;2216;53.806;11.598;2023-12-29T12:40:39;9.20;90.50
4406;DHT22;2216;53.806;11.598;2023-12-29T12:43:06;9.20;90.40
4406;DHT22;2216;53.806;11.598;2023-12-29T12:45:47;9.20;90.40
4406;DHT22;2216;53.806;11.598;2023-12-29T12:48:22;9.20;90.40
4406;DHT22;2216;53.806;11.598;2023-12-29T12:50:49;9.10;90.30
4406;DHT22;2216;53.806;11.598;2023-12-29T12:53:15;9.10;90.40
4406;DHT22;2216;53.806;11.598;2023-12-29T12:55:50;9.00;90.30
4406;DHT22;2216;53.806;11.598;2023-12-29T12:58:18;9.00;90.30
4406;DHT22;2216;53.806;11.598;2023-12-29T13:00:45;9.00;90.40
4406;DHT22;2216;53.806;11.598;2023-12-29T13:03:12;9.00;90.40
4406;DHT22;2216;53.806;11.598;2023-12-29T13:05:38;9.00;90.40
4406;DHT22;2216;53.806;11.598;2023-12-29T13:08:05;9.00;90.40
4406;DHT22;2216;53.806;11.598;2023-12-29T13:10:31;9.00;90.40
4406;DHT22;2216;53.806;11.598;2023-12-29T13:12:57;9.00;90.50
4406;DHT22;2216;53.806;11.598;2023-12-29T13:15:23;8.90;90.50
4406;DHT22;2216;53.806;11.598;2023-12-29T13:17:55;9.00;90.50
4406;DHT22;2216;53.806;11.598;2023-12-29T13:20:21;8.90;90.50
4406;DHT22;2216;53.806;11.598;2023-12-29T13:22:50;8.90;90.40
4406;DHT22;2216;53.806;11.598;2023-12-29T13:25:35;8.90;90.40
4406;DHT22;2216;53.806;11.598;2023-12-29T13:28:01;8.80;90.30
4406;DHT22;2216;53.806;11.598;2023-12-29T13:30:28;8.80;90.40
4406;DHT22;2216;53.806;11.598;2023-12-29T13:32:55;8.90;90.40
4406;DHT22;2216;53.806;11.598;2023-12-29T13:35:36;8.80;90.40
4406;DHT22;2216;53.806;11.598;2023-12-29T13:38:08;8.80;90.40
4406;DHT22;2216;53.806;11.598;2023-12-29T13:40:47;8.80;90.50
4406;DHT22;2216;53.806;11.598;2023-12-29T13:43:20;8.80;90.50
4406;DHT22;2216;53.806;11.598;2023-12-29T13:45:47;8.80;90.50
4406;DHT22;2216;53.806;11.598;2023-12-29T13:48:14;8.80;90.50
4406;DHT22;2216;53.806;11.598;2023-12-29T13:50:47;8.80;90.50
4406;DHT22;2216;53.806;11.598;2023-12-29T13:53:21;8.80;90.50
4406;DHT22;2216;53.806;11.598;2023-12-29T13:55:48;8.80;90.50
4406;DHT22;2216;53.806;11.598;2023-12-29T13:58:14;8.80;90.50
4406;DHT22;2216;53.806;11.598;2023-12-29T14:00:42;8.90;90.50
4406;DHT22;2216;53.806;11.598;2023-12-29T14:03:22;8.80;90.50
4406;DHT22;2216;53.806;11.598;2023-12-29T14:05:55;8.80;90.50
4406;DHT22;2216;53.806;11.598;2023-12-29T14:08:32;8.80;90.40
4406;DHT22;2216;53.806;11.598;2023-12-29T14:11:00;8.80;90.40
4406;DHT22;2216;53.806;11.598;2023-12-29T14:13:26;8.80;90.40
4406;DHT22;2216;53.806;11.598;2023-12-29T14:15:52;8.80;90.40
4406;DHT22;2216;53.806;11.598;2023-12-29T14:18:32;8.80;90.40
4406;DHT22;2216;53.806;11.598;2023-12-29T14:21:29;8.80;90.40
4406;DHT22;2216;53.806;11.598;2023-12-29T14:23:58;8.80;90.40
4406;DHT22;2216;53.806;11.598;2023-12-29T14:26:32;8.70;90.40
4406;DHT22;2216;53.806;11.598;2023-12-29T14:29:02;8.70;90.30
4406;DHT22;2216;53.806;11.598;2023-12-29T14:31:28;8.70;90.40
4406;DHT22;2216;53.806;11.598;2023-12-29T14:33:57;8.70;90.40
4406;DHT22;2216;53.806;11.598;2023-12-29T14:36:22;8.60;90.30
4406;DHT22;2216;53.806;11.598;2023-12-29T14:38:48;8.70;90.40
4406;DHT22;2216;53.806;11.598;2023-12-29T14:41:14;8.60;90.40
4406;DHT22;2216;53.806;11.598;2023-12-29T14:43:40;8.70;90.40
4406;DHT22;2216;53.806;11.598;2023-12-29T14:46:05;8.60;90.40
4406;DHT22;2216;53.806;11.598;2023-12-29T14:48:31;8.60;90.40
4406;DHT22;2216;53.806;11.598;2023-12-29T14:50:57;8.60;90.40
4406;DHT22;2216;53.806;11.598;2023-12-29T14:53:24;8.60;90.40
4406;DHT22;2216;53.806;11.598;2023-12-29T14:55:51;8.60;90.40
4406;DHT22;2216;53.806;11.598;2023-12-29T14:58:17;8.60;90.40
4406;DHT22;2216;53.806;11.598;2023-12-29T15:00:45;8.50;90.30
4406;DHT22;2216;53.806;11.598;2023-12-29T15:03:14;8.50;90.30
4406;DHT22;2216;53.806;11.598;2023-12-29T15:05:44;8.50;90.70
4406;DHT22;2216;53.806;11.598;2023-12-29T15:08:09;8.50;90.30
4406;DHT22;2216;53.806;11.598;2023-12-29T15:10:35;8.50;90.30
4406;DHT22;2216;53.806;11.598;2023-12-29T15:13:02;8.40;90.30
4406;DHT22;2216;53.806;11.598;2023-12-29T15:15:27;8.50;90.30
4406;DHT22;2216;53.806;11.598;2023-12-29T15:17:53;8.40;90.30
4406;DHT22;2216;53.806;11.598;2023-12-29T15:20:19;8.40;90.30
4406;DHT22;2216;53.806;11.598;2023-12-29T15:22:44;8.30;90.30
4406;DHT22;2216;53.806;11.598;2023-12-29T15:25:10;8.30;90.30
4406;DHT22;2216;53.806;11.598;2023-12-29T15:27:36;8.30;90.30
4406;DHT22;2216;53.806;11.598;2023-12-29T15:30:02;8.30;90.30
4406;DHT22;2216;53.806;11.598;2023-12-29T15:32:28;8.30;90.30
4406;DHT22;2216;53.806;11.598;2023-12-29T15:34:54;8.20;90.30
4406;DHT22;2216;53.806;11.598;2023-12-29T15:37:20;8.20;90.30
4406;DHT22;2216;53.806;11.598;2023-12-29T15:39:45;8.20;90.30
4406;DHT22;2216;53.806;11.598;2023-12-29T15:42:11;8.10;90.20
4406;DHT22;2216;53.806;11.598;2023-12-29T15:44:37;8.20;90.30
4406;DHT22;2216;53.806;11.598;2023-12-29T15:47:03;8.10;90.30
4406;DHT22;2216;53.806;11.598;2023-12-29T15:49:28;8.10;90.30
4406;DHT22;2216;53.806;11.598;2023-12-29T15:51:56;8.10;90.30
4406;DHT22;2216;53.806;11.598;2023-12-29T15:54:23;8.10;90.30
4406;DHT22;2216;53.806;11.598;2023-12-29T15:56:49;8.00;90.30
4406;DHT22;2216;53.806;11.598;2023-12-29T15:59:15;8.00;90.30
4406;DHT22;2216;53.806;11.598;2023-12-29T16:01:41;8.00;90.30
4406;DHT22;2216;53.806;11.598;2023-12-29T16:04:07;8.00;90.30
4406;DHT22;2216;53.806;11.598;2023-12-29T16:06:33;7.90;90.30
4406;DHT22;2216;53.806;11.598;2023-12-29T16:09:01;7.90;90.30
4406;DHT22;2216;53.806;11.598;2023-12-29T16:11:27;7.90;90.30
4406;DHT22;2216;53.806;11.598;2023-12-29T16:13:53;7.90;90.30
4406;DHT22;2216;53.806;11.598;2023-12-29T16:16:19;7.90;90.30
4406;DHT22;2216;53.806;11.598;2023-12-29T16:18:46;7.90;90.30
4406;DHT22;2216;53.806;11.598;2023-12-29T16:21:12;7.80;90.30